Time;durP1;ratioP1;P1;durP2;ratioP2;P2;SDS_P1;SDS_P2;PMS_P1;PMS_P2;Temp;Humidity;BMP_temperature;BMP_pressure;BME280_temperature;BME280_humidity;BME280_pressure;Samples;Min_cycle;Max_cycle;Signal;HPM_P1;HPM_P2
2022/01/15 00:02:11;;;;;;;37.57;18.47;;;;;;;3.07;100.00;102875.84;5116805;28;20253;-72
2022/01/15 00:04:38;;;;;;;40.67;18.37;;;;;;;3.07;100.00;102859.47;5098411;28;20197;-72
2022/01/15 00:07:05;;;;;;;45.10;18.77;;;;;;;3.12;100.00;102865.63;5116877;28;20294;-72
2022/01/15 00:09:32;;;;;;;36.93;17.80;;;;;;;3.17;100.00;102864.03;5117177;28;20642;-72
2022/01/15 00:11:58;;;;;;;36.87;19.03;;;;;;;3.14;100.00;102870.00;5116858;28;20722;-72
2022/01/15 00:14:30;;;;;;;46.00;19.80;;;;;;;3.05;100.00;102872.38;5117057;28;20192;-72
2022/01/15 00:17:04;;;;;;;44.63;20.10;;;;;;;3.10;100.00;102854.38;5116593;28;20204;-72
2022/01/15 00:22:14;;;;;;;44.77;17.57;;;;;;;3.10;100.00;102852.66;5115406;28;20179;-72
2022/01/15 00:24:41;;;;;;;44.47;18.53;;;;;;;3.16;100.00;102847.63;5116677;28;20179;-72
2022/01/15 00:27:09;;;;;;;43.67;17.73;;;;;;;3.24;100.00;102846.09;5116324;28;20690;-72
2022/01/15 00:29:37;;;;;;;32.80;17.30;;;;;;;3.16;100.00;102837.28;5098619;28;20229;-72
2022/01/15 00:32:05;;;;;;;46.27;16.67;;;;;;;3.17;100.00;102843.31;5116729;28;20234;-71
2022/01/15 00:34:32;;;;;;;37.67;17.10;;;;;;;3.17;100.00;102844.19;5116155;28;20215;-71
2022/01/15 00:36:59;;;;;;;39.97;17.90;;;;;;;3.17;100.00;102840.75;5116044;28;20216;-72
2022/01/15 00:39:26;;;;;;;40.23;19.93;;;;;;;3.15;100.00;102839.84;5115956;28;20189;-72
2022/01/15 00:41:53;;;;;;;48.03;18.83;;;;;;;3.17;100.00;102835.56;5116043;28;20196;-72
2022/01/15 00:44:19;;;;;;;36.43;17.70;;;;;;;3.21;100.00;102824.41;5116234;28;20231;-72
2022/01/15 00:46:46;;;;;;;36.83;17.50;;;;;;;3.19;100.00;102824.41;5115872;28;20216;-72
2022/01/15 00:49:13;;;;;;;38.50;17.80;;;;;;;3.18;100.00;102821.78;5116381;28;20276;-72
2022/01/15 00:51:39;;;;;;;34.00;17.57;;;;;;;3.21;100.00;102827.00;5115831;28;20528;-72
2022/01/15 00:54:06;;;;;;;41.97;18.87;;;;;;;3.22;100.00;102826.19;5115800;28;20297;-72
2022/01/15 00:56:33;;;;;;;32.63;16.13;;;;;;;3.20;100.00;102820.97;5115622;28;20266;-72
2022/01/15 00:59:00;;;;;;;38.53;17.30;;;;;;;3.20;100.00;102823.56;5115672;28;20244;-72
2022/01/15 01:01:27;;;;;;;36.77;18.53;;;;;;;3.20;100.00;102827.84;5116101;28;20596;-72
2022/01/15 01:03:53;;;;;;;45.00;18.90;;;;;;;3.19;100.00;102814.03;5115548;28;20220;-72
2022/01/15 01:06:20;;;;;;;49.37;18.13;;;;;;;3.18;100.00;102809.72;5115478;28;20267;-72
2022/01/15 01:08:46;;;;;;;50.97;18.90;;;;;;;3.18;100.00;102803.66;5097489;28;20238;-72
2022/01/15 01:11:16;;;;;;;45.00;18.93;;;;;;;3.21;100.00;102806.31;5115423;28;20200;-72
2022/01/15 01:24:14;;;;;;;48.37;19.37;;;;;;;3.15;100.00;102785.50;5115421;28;20547;-71
2022/01/15 01:27:06;;;;;;;48.00;18.10;;;;;;;3.14;100.00;102782.00;5115246;28;20202;-72
2022/01/15 01:34:29;;;;;;;55.77;19.30;;;;;;;3.16;100.00;102777.75;5114939;28;20179;-72
2022/01/15 01:44:41;;;;;;;44.47;18.90;;;;;;;3.11;100.00;102776.75;5115044;28;20191;-72
2022/01/15 01:47:23;;;;;;;57.57;19.30;;;;;;;3.22;100.00;102777.03;5115236;28;20254;-72
2022/01/15 01:49:49;;;;;;;50.63;18.70;;;;;;;3.17;100.00;102776.03;5115001;28;20176;-72
2022/01/15 01:52:16;;;;;;;39.07;18.03;;;;;;;3.15;100.00;102772.53;5114680;28;20192;-72
2022/01/15 01:54:42;;;;;;;53.03;18.90;;;;;;;3.10;100.00;102774.16;5114862;28;20762;-72
2022/01/15 01:57:09;;;;;;;43.50;18.77;;;;;;;3.11;100.00;102778.47;5114783;28;20336;-72
2022/01/15 01:59:37;;;;;;;48.00;18.00;;;;;;;3.09;100.00;102762.06;5114481;28;20196;-72
2022/01/15 02:02:04;;;;;;;39.90;17.93;;;;;;;3.04;100.00;102767.13;5114374;28;20276;-72
2022/01/15 02:04:31;;;;;;;45.73;17.63;;;;;;;3.08;100.00;102760.31;5114409;28;20267;-72
2022/01/15 02:06:58;;;;;;;47.63;16.70;;;;;;;3.16;100.00;102769.97;5114625;28;20207;-72
2022/01/15 02:09:25;;;;;;;44.13;17.27;;;;;;;3.13;100.00;102758.69;5114844;28;20189;-72
2022/01/15 02:11:51;;;;;;;38.27;16.80;;;;;;;3.03;100.00;102758.47;5114311;28;20234;-72
2022/01/15 02:14:28;;;;;;;47.30;17.23;;;;;;;3.05;100.00;102761.09;5096518;28;20192;-72
2022/01/15 02:16:56;;;;;;;45.60;18.70;;;;;;;3.04;100.00;102757.63;5095980;28;20839;-72
2022/01/15 02:19:32;;;;;;;39.00;18.07;;;;;;;3.12;100.00;102752.63;5114108;28;20184;-72
2022/01/15 02:24:43;;;;;;;42.57;17.80;;;;;;;3.00;100.00;102753.25;5114401;28;20189;-72
2022/01/15 02:27:09;;;;;;;57.37;19.10;;;;;;;2.92;100.00;102744.41;5114013;28;20211;-72
2022/01/15 02:29:36;;;;;;;47.77;17.63;;;;;;;2.89;100.00;102749.53;5114554;28;20192;-72
2022/01/15 02:32:03;;;;;;;41.00;15.67;;;;;;;2.94;100.00;102749.66;5114277;28;20234;-72
2022/01/15 02:34:30;;;;;;;38.07;16.53;;;;;;;2.99;100.00;102746.28;5113916;28;20224;-72
2022/01/15 02:36:56;;;;;;;44.83;17.17;;;;;;;3.04;100.00;102741.25;5113841;28;20212;-72
2022/01/15 02:39:22;;;;;;;38.63;16.70;;;;;;;3.06;100.00;102736.09;5113887;28;20253;-72
2022/01/15 02:41:49;;;;;;;40.97;17.57;;;;;;;3.09;100.00;102733.59;5113777;28;20254;-72
2022/01/15 02:44:19;;;;;;;45.50;18.17;;;;;;;3.08;100.00;102730.13;5113129;28;20586;-72
2022/01/15 02:49:17;;;;;;;35.07;16.07;;;;;;;3.11;100.00;102729.31;5113750;28;20196;-72
2022/01/15 02:51:43;;;;;;;37.90;17.00;;;;;;;3.13;100.00;102728.50;5113995;28;20579;-72
2022/01/15 02:54:10;;;;;;;43.63;18.80;;;;;;;3.17;100.00;102734.63;5113999;28;20241;-72
2022/01/15 02:56:39;;;;;;;33.47;16.77;;;;;;;3.18;100.00;102731.19;5113801;28;20214;-72
2022/01/15 02:59:09;;;;;;;48.20;18.17;;;;;;;3.15;100.00;102726.84;5114214;28;20252;-72
2022/01/15 03:01:36;;;;;;;43.87;17.20;;;;;;;3.16;100.00;102714.75;5113895;28;20195;-72
2022/01/15 03:04:03;;;;;;;33.37;16.07;;;;;;;3.15;100.00;102706.13;5113631;28;20578;-72
2022/01/15 03:06:29;;;;;;;38.07;16.13;;;;;;;3.16;100.00;102713.03;5113548;28;20258;-72
2022/01/15 03:08:56;;;;;;;41.33;17.80;;;;;;;3.23;100.00;102701.09;5113848;28;20192;-72
2022/01/15 03:11:23;;;;;;;41.60;17.10;;;;;;;3.17;100.00;102690.63;5113560;28;20234;-72
2022/01/15 03:13:50;;;;;;;40.83;16.53;;;;;;;3.18;100.00;102685.47;5113519;28;20590;-72
2022/01/15 03:16:19;;;;;;;35.97;15.30;;;;;;;3.17;100.00;102688.03;5113653;28;20218;-72
2022/01/15 03:18:47;;;;;;;39.23;16.67;;;;;;;3.11;100.00;102698.25;5113481;28;20181;-72
2022/01/15 03:21:14;;;;;;;38.87;16.57;;;;;;;3.07;100.00;102694.72;5113325;28;20693;-72
2022/01/15 03:23:40;;;;;;;33.17;15.27;;;;;;;3.09;100.00;102687.00;5113480;28;20585;-72
2022/01/15 03:26:13;;;;;;;40.47;16.40;;;;;;;3.12;100.00;102680.16;5113352;28;20215;-72
2022/01/15 03:28:41;;;;;;;38.50;16.30;;;;;;;3.17;100.00;102680.28;5113741;28;20168;-72
2022/01/15 03:31:08;;;;;;;39.37;16.73;;;;;;;3.25;100.00;102681.31;5113652;28;20661;-72
2022/01/15 03:33:35;;;;;;;36.73;16.23;;;;;;;3.21;100.00;102675.16;5113930;28;20542;-72
2022/01/15 03:36:07;;;;;;;36.03;15.73;;;;;;;3.21;100.00;102671.72;5095084;28;20240;-72
2022/01/15 03:38:33;;;;;;;40.33;15.90;;;;;;;3.23;100.00;102673.50;5095578;28;20178;-72
2022/01/15 03:41:00;;;;;;;39.87;15.57;;;;;;;3.21;100.00;102671.72;5113506;28;20208;-72
2022/01/15 03:43:26;;;;;;;35.60;16.07;;;;;;;3.19;100.00;102673.41;5113294;28;20185;-72
2022/01/15 03:45:53;;;;;;;37.10;16.33;;;;;;;3.10;100.00;102662.88;5113175;28;20243;-73
2022/01/15 03:48:20;;;;;;;36.17;16.33;;;;;;;3.03;100.00;102657.56;5094924;28;20658;-72
2022/01/15 03:50:46;;;;;;;41.40;20.37;;;;;;;3.04;100.00;102656.72;5113213;28;20189;-72
2022/01/15 03:53:13;;;;;;;39.90;17.70;;;;;;;3.06;100.00;102658.47;5095209;28;20209;-72
2022/01/15 03:55:39;;;;;;;35.83;16.17;;;;;;;3.07;100.00;102657.63;5113749;28;20190;-72
2022/01/15 03:58:06;;;;;;;31.97;15.27;;;;;;;3.10;100.00;102650.81;5116821;28;20266;-73
2022/01/15 04:00:32;;;;;;;32.43;15.13;;;;;;;3.10;100.00;102644.75;5098472;28;20223;-73
2022/01/15 04:02:59;;;;;;;45.60;17.60;;;;;;;3.17;100.00;102644.03;5117324;28;20189;-72
2022/01/15 04:05:26;;;;;;;36.60;16.57;;;;;;;3.14;100.00;102638.78;5098739;28;20227;-72
2022/01/15 04:07:52;;;;;;;47.10;16.13;;;;;;;3.14;100.00;102628.44;5116732;28;20211;-73
2022/01/15 04:10:19;;;;;;;37.47;16.13;;;;;;;3.16;100.00;102630.22;5116971;28;20214;-72
2022/01/15 04:12:46;;;;;;;40.80;16.77;;;;;;;3.07;100.00;102623.97;5116878;28;20200;-72
2022/01/15 04:15:15;;;;;;;33.20;15.83;;;;;;;3.08;100.00;102621.44;5117101;28;20568;-72
2022/01/15 04:17:43;;;;;;;40.30;15.77;;;;;;;3.29;100.00;102615.81;5117013;28;20217;-72
2022/01/15 04:20:10;;;;;;;35.63;16.43;;;;;;;3.17;100.00;102611.25;5116436;28;20204;-72
2022/01/15 04:22:37;;;;;;;34.27;14.87;;;;;;;3.09;100.00;102611.97;5116894;28;20330;-72
2022/01/15 04:25:04;;;;;;;24.90;13.50;;;;;;;3.10;100.00;102608.53;5116685;28;20237;-72
2022/01/15 04:27:31;;;;;;;30.47;12.97;;;;;;;3.05;100.00;102611.00;5116268;28;20324;-73
2022/01/15 04:30:02;;;;;;;34.80;14.40;;;;;;;3.11;100.00;102605.09;5116558;28;20232;-72
2022/01/15 04:32:30;;;;;;;21.20;13.93;;;;;;;3.02;100.00;102608.38;5116563;28;20169;-72
2022/01/15 04:34:58;;;;;;;29.20;13.87;;;;;;;2.98;100.00;102604.84;5116155;28;20192;-72
2022/01/15 04:37:33;;;;;;;30.50;13.60;;;;;;;3.10;100.00;102608.53;5116085;28;20331;-72
2022/01/15 04:39:59;;;;;;;30.90;14.03;;;;;;;3.07;100.00;102608.44;5098056;28;20179;-72
2022/01/15 04:42:26;;;;;;;26.90;12.50;;;;;;;3.04;100.00;102602.38;5115954;28;20684;-72
2022/01/15 04:44:52;;;;;;;19.80;11.73;;;;;;;2.97;100.00;102600.50;5097699;28;20711;-71
2022/01/15 04:47:19;;;;;;;15.63;9.93;;;;;;;2.88;100.00;102597.75;5115900;28;20289;-71
2022/01/15 04:49:45;;;;;;;9.63;8.70;;;;;;;2.90;100.00;102592.59;5115904;28;20194;-71
2022/01/15 04:52:12;;;;;;;13.23;9.03;;;;;;;2.94;100.00;102587.53;5115835;28;20183;-71
2022/01/15 04:54:38;;;;;;;11.20;8.40;;;;;;;2.89;100.00;102589.13;5115750;28;20194;-71
2022/01/15 04:57:05;;;;;;;12.47;9.47;;;;;;;2.88;100.00;102594.28;5115955;28;20619;-72
2022/01/15 04:59:32;;;;;;;10.43;9.20;;;;;;;2.89;100.00;102596.91;5116164;28;20187;-71
2022/01/15 05:01:58;;;;;;;15.03;10.00;;;;;;;2.92;100.00;102589.19;5115828;28;20648;-71
2022/01/15 05:04:25;;;;;;;15.53;9.67;;;;;;;3.01;100.00;102589.38;5116129;28;20661;-71
2022/01/15 05:06:51;;;;;;;15.07;10.17;;;;;;;3.01;100.00;102593.69;5097522;28;20199;-72
2022/01/15 05:09:18;;;;;;;14.27;10.10;;;;;;;2.88;100.00;102589.97;5115310;28;20177;-71
2022/01/15 05:11:56;;;;;;;12.33;9.13;;;;;;;2.87;100.00;102590.81;5115772;28;20175;-71
2022/01/15 05:14:22;;;;;;;9.00;8.50;;;;;;;2.91;100.00;102589.16;5115859;28;20172;-71
2022/01/15 05:16:49;;;;;;;12.90;9.47;;;;;;;2.85;100.00;102594.19;5115425;28;20227;-71
2022/01/15 05:19:15;;;;;;;18.73;10.10;;;;;;;2.95;100.00;102584.09;5115333;28;20194;-71
2022/01/15 05:21:42;;;;;;;13.73;8.53;;;;;;;3.07;100.00;102588.63;5115186;28;20221;-71
2022/01/15 05:24:08;;;;;;;11.07;8.97;;;;;;;2.95;100.00;102588.38;5115523;28;20192;-71
2022/01/15 05:26:35;;;;;;;10.50;9.53;;;;;;;2.96;100.00;102590.13;5115106;28;20218;-72
2022/01/15 05:29:02;;;;;;;9.47;8.57;;;;;;;2.95;100.00;102588.38;5115181;28;20190;-71
2022/01/15 05:31:29;;;;;;;13.77;8.90;;;;;;;2.93;100.00;102595.22;5115367;28;20561;-71
2022/01/15 05:33:56;;;;;;;12.83;9.17;;;;;;;2.95;100.00;102591.84;5114998;28;20241;-71
2022/01/15 05:36:23;;;;;;;9.50;8.80;;;;;;;2.96;100.00;102588.41;5114906;28;20211;-72
2022/01/15 05:38:49;;;;;;;10.67;8.90;;;;;;;2.95;100.00;102588.38;5115480;28;20666;-72
2022/01/15 05:41:16;;;;;;;12.10;10.67;;;;;;;2.97;100.00;102582.41;5115080;28;20201;-72
2022/01/15 05:43:42;;;;;;;11.40;9.53;;;;;;;2.97;100.00;102582.41;5114805;28;20187;-72
2022/01/15 05:46:09;;;;;;;11.03;9.50;;;;;;;2.90;100.00;102580.53;5115250;28;20336;-72
2022/01/15 05:48:35;;;;;;;13.00;11.13;;;;;;;2.92;100.00;102577.97;5114993;28;20200;-72
2022/01/15 05:51:02;;;;;;;15.37;9.67;;;;;;;2.97;100.00;102584.97;5114724;28;20285;-72
2022/01/15 05:53:28;;;;;;;13.83;10.30;;;;;;;2.88;100.00;102584.81;5115187;28;20188;-72
2022/01/15 05:55:55;;;;;;;13.47;10.67;;;;;;;2.94;100.00;102584.06;5114550;28;20191;-73
2022/01/15 05:58:21;;;;;;;10.50;8.77;;;;;;;2.93;100.00;102584.88;5114496;28;20191;-72
2022/01/15 06:00:48;;;;;;;11.63;10.33;;;;;;;2.84;100.00;102579.53;5096535;28;20592;-72
2022/01/15 06:03:14;;;;;;;19.70;10.60;;;;;;;2.85;100.00;102574.38;5115028;28;20199;-71
2022/01/15 06:05:41;;;;;;;19.90;10.57;;;;;;;2.83;100.00;102588.13;5114471;28;20184;-71
2022/01/15 06:08:07;;;;;;;15.00;10.97;;;;;;;2.85;100.00;102584.72;5114403;28;20261;-72
2022/01/15 06:10:34;;;;;;;12.43;10.43;;;;;;;2.82;100.00;102576.91;5114925;28;20221;-72
2022/01/15 06:13:01;;;;;;;12.20;10.57;;;;;;;2.93;100.00;102584.88;5114828;28;20545;-72
2022/01/15 06:15:27;;;;;;;13.87;10.13;;;;;;;2.89;100.00;102583.09;5096068;28;20248;-72
2022/01/15 06:17:54;;;;;;;10.57;9.63;;;;;;;2.93;100.00;102578.03;5114185;28;20257;-72
2022/01/15 06:20:20;;;;;;;11.57;9.33;;;;;;;2.98;100.00;102591.03;5094876;28;20205;-72
2022/01/15 06:22:47;;;;;;;12.17;9.77;;;;;;;2.97;100.00;102587.56;5114069;28;20683;-72
2022/01/15 06:25:13;;;;;;;13.53;10.53;;;;;;;2.84;100.00;102582.97;5114631;28;20232;-72
2022/01/15 06:27:40;;;;;;;12.00;10.30;;;;;;;2.82;100.00;102584.69;5113982;28;20704;-73
2022/01/15 06:30:07;;;;;;;15.77;10.37;;;;;;;2.85;100.00;102576.97;5114632;28;20176;-72
2022/01/15 06:32:36;;;;;;;11.87;10.23;;;;;;;2.71;100.00;102587.03;5113965;28;20235;-72
2022/01/15 06:35:12;;;;;;;11.70;10.63;;;;;;;2.65;100.00;102586.06;5095941;28;20191;-72
2022/01/15 06:37:39;;;;;;;15.00;10.37;;;;;;;2.66;100.00;102572.28;5114412;28;20797;-72
2022/01/15 06:40:07;;;;;;;12.87;11.50;;;;;;;2.77;100.00;102575.94;5114503;28;20190;-72
2022/01/15 06:42:33;;;;;;;14.30;10.60;;;;;;;2.63;100.00;102578.22;5096282;28;20215;-72
2022/01/15 06:45:00;;;;;;;11.80;10.60;;;;;;;2.65;100.00;102578.28;5114112;28;20561;-71
2022/01/15 06:47:27;;;;;;;14.27;10.83;;;;;;;2.56;100.00;102571.19;5095755;28;20213;-71
2022/01/15 06:49:53;;;;;;;12.70;10.37;;;;;;;2.58;100.00;102571.25;5114072;28;20237;-71
2022/01/15 06:52:21;;;;;;;14.97;11.27;;;;;;;2.65;100.00;102575.69;5113760;28;20217;-71
2022/01/15 06:54:47;;;;;;;11.43;10.27;;;;;;;2.61;100.00;102571.28;5114185;28;20190;-71
2022/01/15 06:57:14;;;;;;;13.83;11.37;;;;;;;2.51;100.00;102572.81;5113613;28;20264;-72
2022/01/15 06:59:44;;;;;;;12.17;10.73;;;;;;;2.51;100.00;102575.41;5113691;28;20191;-72
2022/01/15 07:02:11;;;;;;;12.10;10.73;;;;;;;2.60;100.00;102567.84;5113646;28;20207;-72
2022/01/15 07:04:38;;;;;;;15.67;11.70;;;;;;;2.66;100.00;102559.34;5113641;28;20191;-72
2022/01/15 07:07:05;;;;;;;19.43;12.60;;;;;;;2.54;100.00;102575.47;5113558;28;20232;-72
2022/01/15 07:09:33;;;;;;;23.10;11.97;;;;;;;2.63;100.00;102574.78;5113577;28;20188;-72
2022/01/15 07:11:59;;;;;;;21.00;11.87;;;;;;;2.57;100.00;102566.88;5113842;28;20172;-72
2022/01/15 07:14:25;;;;;;;19.20;12.03;;;;;;;2.47;100.00;102564.09;5113567;28;20185;-72
2022/01/15 07:16:52;;;;;;;19.50;12.97;;;;;;;2.48;100.00;102565.84;5113515;28;20206;-72
2022/01/15 07:19:19;;;;;;;20.13;11.33;;;;;;;2.59;100.00;102563.50;5113513;28;20658;-72
2022/01/15 07:21:46;;;;;;;18.23;11.90;;;;;;;2.50;99.37;102563.31;5113549;28;20613;-72
2022/01/15 07:24:13;;;;;;;20.40;11.40;;;;;;;2.42;99.58;102555.38;5113433;28;20292;-72
2022/01/15 07:26:40;;;;;;;21.47;11.37;;;;;;;2.46;99.65;102552.03;5113383;28;20207;-72
2022/01/15 07:29:14;;;;;;;19.50;11.57;;;;;;;2.38;99.59;102550.13;5113369;28;20221;-72
2022/01/15 07:31:42;;;;;;;17.90;11.87;;;;;;;2.46;99.60;102554.63;5115945;28;20180;-72
2022/01/15 07:34:09;;;;;;;21.47;10.90;;;;;;;2.37;99.34;102550.97;5117694;28;20203;-71
2022/01/15 07:36:36;;;;;;;20.77;11.90;;;;;;;2.41;99.12;102543.28;5117536;28;20691;-71
2022/01/15 07:39:04;;;;;;;18.03;13.00;;;;;;;2.36;99.24;102542.34;5117561;28;20190;-71
2022/01/15 07:41:31;;;;;;;24.53;13.87;;;;;;;2.33;99.18;102539.66;5117215;28;20591;-71
2022/01/15 07:44:02;;;;;;;22.97;12.70;;;;;;;2.24;99.43;102544.66;5099030;28;20182;-71
2022/01/15 07:46:28;;;;;;;23.80;13.73;;;;;;;2.25;99.33;102550.69;5099268;28;20209;-71
2022/01/15 07:48:55;;;;;;;25.00;13.83;;;;;;;2.30;99.33;102552.53;5098877;28;20191;-71
2022/01/15 07:51:21;;;;;;;24.47;14.43;;;;;;;2.36;99.23;102547.50;5117284;28;20188;-71
2022/01/15 07:53:48;;;;;;;21.23;12.23;;;;;;;2.34;99.34;102546.59;5116923;28;20190;-71
2022/01/15 07:56:14;;;;;;;21.93;13.23;;;;;;;2.31;98.71;102543.06;5117433;28;20209;-72
2022/01/15 07:58:41;;;;;;;23.20;13.83;;;;;;;2.24;99.14;102544.66;5117040;28;20230;-71
2022/01/15 08:01:07;;;;;;;21.57;11.97;;;;;;;2.23;99.25;102537.72;5117203;28;20186;-71
2022/01/15 08:03:34;;;;;;;26.60;13.73;;;;;;;2.23;99.47;102544.63;5116726;28;20254;-71
2022/01/15 08:06:01;;;;;;;22.03;12.70;;;;;;;2.23;99.55;102542.03;5116904;28;20188;-72
2022/01/15 08:08:27;;;;;;;17.70;11.43;;;;;;;2.15;99.57;102542.72;5116748;28;20189;-71
2022/01/15 08:10:54;;;;;;;20.63;12.03;;;;;;;2.13;99.85;102540.94;5116701;28;20673;-71
2022/01/15 08:13:20;;;;;;;23.17;11.90;;;;;;;2.27;99.95;102539.53;5117214;28;20187;-71
2022/01/15 08:15:46;;;;;;;19.40;11.03;;;;;;;2.20;99.88;102535.06;5116527;28;20527;-72
2022/01/15 08:18:13;;;;;;;19.93;11.13;;;;;;;2.18;99.87;102535.03;5117089;28;20532;-72
2022/01/15 08:20:41;;;;;;;16.47;10.67;;;;;;;2.17;100.00;102537.59;5116873;28;20204;-72
2022/01/15 08:23:07;;;;;;;16.43;11.63;;;;;;;2.11;100.00;102537.44;5116338;28;20209;-72
2022/01/15 08:25:34;;;;;;;18.23;10.43;;;;;;;2.03;100.00;102539.84;5116622;28;20190;-72
2022/01/15 08:28:01;;;;;;;21.60;10.73;;;;;;;2.00;100.00;102533.72;5116438;28;20205;-72
2022/01/15 08:30:28;;;;;;;16.23;9.87;;;;;;;1.91;100.00;102527.53;5116502;28;20185;-71
2022/01/15 08:32:55;;;;;;;13.77;9.77;;;;;;;1.97;100.00;102529.38;5116223;28;20183;-71
2022/01/15 08:35:21;;;;;;;21.20;9.70;;;;;;;1.86;100.00;102531.72;5116752;28;20236;-71
2022/01/15 08:37:48;;;;;;;17.80;8.17;;;;;;;1.84;100.00;102530.78;5116340;28;20209;-71
2022/01/15 08:40:16;;;;;;;12.27;8.37;;;;;;;1.78;100.00;102535.81;5116265;28;20192;-71
2022/01/15 08:42:43;;;;;;;13.87;9.83;;;;;;;1.74;100.00;102541.75;5115290;28;20258;-71
2022/01/15 08:45:11;;;;;;;13.87;9.20;;;;;;;1.74;100.00;102536.59;5116036;28;20234;-71
2022/01/15 08:47:38;;;;;;;19.03;8.33;;;;;;;1.62;100.00;102542.31;5115840;28;20598;-71
2022/01/15 08:50:06;;;;;;;19.67;9.63;;;;;;;1.66;100.00;102530.38;5116244;28;20174;-71
2022/01/15 08:52:33;;;;;;;11.90;8.97;;;;;;;1.67;100.00;102528.66;5115797;28;20190;-71
2022/01/15 08:55:00;;;;;;;14.40;9.03;;;;;;;1.62;100.00;102539.72;5098050;28;20538;-71
2022/01/15 08:57:26;;;;;;;17.53;8.87;;;;;;;1.64;100.00;102540.66;5115714;28;20228;-72
2022/01/15 08:59:53;;;;;;;15.57;9.23;;;;;;;1.63;100.00;102538.88;5116818;28;20504;-72
2022/01/15 09:02:20;;;;;;;14.43;8.87;;;;;;;1.65;100.00;102539.81;5115538;28;20223;-71
2022/01/15 09:04:46;;;;;;;19.43;9.20;;;;;;;1.71;100.00;102527.88;5115610;28;20200;-71
2022/01/15 09:07:14;;;;;;;14.63;10.17;;;;;;;1.72;100.00;102532.22;5115727;28;20209;-72
2022/01/15 09:09:41;;;;;;;18.87;9.07;;;;;;;1.71;100.00;102535.63;5115790;28;20576;-72
2022/01/15 09:12:07;;;;;;;14.87;8.83;;;;;;;1.72;100.00;102538.28;5115473;28;20558;-72
2022/01/15 09:14:34;;;;;;;22.37;10.77;;;;;;;1.87;100.00;102524.84;5115427;28;20242;-72
2022/01/15 09:17:01;;;;;;;16.90;9.37;;;;;;;1.85;100.00;102535.13;5115555;28;20269;-72
2022/01/15 09:19:28;;;;;;;19.60;10.43;;;;;;;1.91;100.00;102532.69;5115476;28;20243;-72
2022/01/15 09:21:54;;;;;;;12.67;7.97;;;;;;;1.86;100.00;102518.81;5097460;28;20584;-72
2022/01/15 09:24:21;;;;;;;16.13;9.60;;;;;;;1.94;100.00;102529.31;5115736;28;20185;-71
2022/01/15 09:32:19;;;;;;;15.77;8.20;;;;;;;1.99;100.00;102521.66;5115608;28;20173;-72
2022/01/15 09:34:45;;;;;;;18.53;9.47;;;;;;;1.88;100.00;102519.72;5115796;28;20190;-72
2022/01/15 09:37:11;;;;;;;14.33;8.83;;;;;;;1.96;100.00;102513.84;5114791;28;20205;-72
2022/01/15 09:39:38;;;;;;;20.97;10.10;;;;;;;2.03;100.00;102503.69;5115179;28;20196;-72
2022/01/15 09:42:05;;;;;;;18.57;10.03;;;;;;;2.06;100.00;102505.47;5114780;28;20213;-72
2022/01/15 09:44:33;;;;;;;24.30;11.43;;;;;;;2.08;100.00;102511.56;5097162;28;20616;-72
2022/01/15 09:47:00;;;;;;;12.03;9.27;;;;;;;2.06;100.00;102500.28;5114740;28;20691;-72
2022/01/15 09:49:28;;;;;;;21.63;10.43;;;;;;;2.09;100.00;102497.81;5096761;28;20213;-72
2022/01/15 09:51:55;;;;;;;21.63;10.57;;;;;;;2.16;100.00;102489.34;5096907;28;20181;-72
2022/01/15 09:54:21;;;;;;;21.17;10.70;;;;;;;2.14;100.00;102497.06;5114608;28;20188;-72
2022/01/15 09:56:49;;;;;;;24.10;11.03;;;;;;;2.29;100.00;102496.53;5114810;28;20225;-72
2022/01/15 09:59:17;;;;;;;19.77;10.80;;;;;;;2.26;100.00;102495.56;5114827;28;20638;-72
2022/01/15 10:01:43;;;;;;;17.03;10.50;;;;;;;2.26;100.00;102486.09;5114494;28;20183;-72
2022/01/15 10:04:10;;;;;;;20.83;11.10;;;;;;;2.29;100.00;102486.19;5114691;28;20202;-72
2022/01/15 10:06:36;;;;;;;20.43;9.80;;;;;;;2.24;100.00;102487.78;5114364;28;20356;-72
2022/01/15 10:09:06;;;;;;;26.37;9.53;;;;;;;2.26;100.00;102495.56;5114642;28;20232;-72
2022/01/15 10:11:48;;;;;;;10.80;7.70;;;;;;;2.26;100.00;102490.41;5114952;28;20635;-72
2022/01/15 10:14:34;;;;;;;12.77;8.03;;;;;;;2.21;100.00;102490.28;5114715;28;20178;-72
2022/01/15 10:17:34;;;;;;;18.07;8.90;;;;;;;2.01;100.00;102486.44;5096242;28;20214;-72
2022/01/15 10:20:06;;;;;;;14.80;9.73;;;;;;;1.84;100.00;102492.06;5114380;28;20235;-72
2022/01/15 10:22:34;;;;;;;17.37;9.80;;;;;;;2.04;100.00;102489.06;5114338;28;20216;-72
2022/01/15 10:25:07;;;;;;;15.00;9.43;;;;;;;1.99;100.00;102490.66;5113973;28;20190;-72
2022/01/15 10:27:36;;;;;;;16.67;9.70;;;;;;;2.20;100.00;102486.84;5113971;28;20213;-72
2022/01/15 10:30:14;;;;;;;15.10;9.87;;;;;;;2.18;100.00;102485.06;5114060;28;20659;-72
2022/01/15 10:32:55;;;;;;;17.03;10.17;;;;;;;2.26;100.00;102486.09;5113894;28;20548;-72
2022/01/15 10:35:23;;;;;;;23.00;9.37;;;;;;;2.23;100.00;102491.22;5113954;28;20170;-72
2022/01/15 10:38:13;;;;;;;18.53;10.07;;;;;;;2.17;100.00;102481.63;5113809;28;20209;-72
2022/01/15 10:40:46;;;;;;;22.03;10.07;;;;;;;2.11;100.00;102480.59;5114153;28;20177;-72
2022/01/15 10:43:18;;;;;;;12.07;9.40;;;;;;;2.17;100.00;102478.16;5114085;28;20590;-72
2022/01/15 10:45:53;;;;;;;18.93;10.57;;;;;;;2.21;100.00;102477.38;5114278;28;20174;-73
2022/01/15 10:48:22;;;;;;;17.17;9.80;;;;;;;2.16;100.00;102469.53;5114103;28;20216;-72
2022/01/15 10:51:22;;;;;;;15.03;9.30;;;;;;;2.06;100.00;102469.28;5113787;28;20185;-72
2022/01/15 10:53:48;;;;;;;19.33;9.87;;;;;;;2.11;100.00;102465.09;5114284;28;20186;-72
2022/01/15 10:56:15;;;;;;;13.07;8.80;;;;;;;2.20;100.00;102462.72;5096536;28;20221;-72
2022/01/15 10:58:42;;;;;;;13.27;9.00;;;;;;;2.14;100.00;102455.72;5113915;28;20588;-72
2022/01/15 11:01:13;;;;;;;15.40;10.13;;;;;;;2.24;100.00;102446.44;5114125;28;20188;-72
2022/01/15 11:03:44;;;;;;;20.63;10.80;;;;;;;2.25;100.00;102442.16;5114096;28;20210;-72
2022/01/15 11:06:10;;;;;;;16.93;10.23;;;;;;;2.40;100.00;102437.28;5115745;28;20228;-73
2022/01/15 11:08:39;;;;;;;28.73;11.17;;;;;;;2.45;100.00;102435.69;5117894;28;20189;-72
2022/01/15 11:11:12;;;;;;;21.37;10.10;;;;;;;2.42;100.00;102433.88;5099495;28;20190;-72
2022/01/15 11:13:39;;;;;;;16.13;9.63;;;;;;;2.41;100.00;102439.91;5117780;28;20179;-72
2022/01/15 11:16:14;;;;;;;18.97;9.83;;;;;;;2.33;100.00;102444.03;5099336;28;20217;-72
2022/01/15 11:18:42;;;;;;;14.53;9.50;;;;;;;2.39;100.00;102441.59;5099946;28;20215;-72
2022/01/15 11:21:13;;;;;;;12.33;9.97;;;;;;;2.37;100.00;102432.06;5117688;28;20650;-72
2022/01/15 11:23:41;;;;;;;13.57;9.03;;;;;;;2.40;100.00;102432.97;5117888;28;20587;-72
2022/01/15 11:26:20;;;;;;;14.30;9.77;;;;;;;2.39;100.00;102430.38;5117453;28;20211;-72
2022/01/15 11:28:47;;;;;;;18.23;10.33;;;;;;;2.40;100.00;102432.13;5117798;28;20562;-72
2022/01/15 11:31:23;;;;;;;23.17;9.43;;;;;;;2.55;100.00;102426.38;5117726;28;20187;-72
2022/01/15 11:33:56;;;;;;;13.70;9.47;;;;;;;2.43;100.00;102437.38;5117936;28;20264;-72
2022/01/15 11:36:30;;;;;;;14.57;10.00;;;;;;;2.48;100.00;102431.41;5117737;28;20268;-72
2022/01/15 11:38:58;;;;;;;16.00;10.47;;;;;;;2.49;100.00;102424.53;5117302;28;20212;-72
2022/01/15 11:41:27;;;;;;;16.53;10.03;;;;;;;2.42;100.00;102433.88;5099812;28;20192;-72
2022/01/15 11:43:58;;;;;;;24.00;10.50;;;;;;;2.45;100.00;102426.22;5117054;28;20703;-72
2022/01/15 11:46:26;;;;;;;27.73;11.40;;;;;;;2.56;100.00;102425.53;5117122;28;20238;-72
2022/01/15 11:49:27;;;;;;;20.30;11.60;;;;;;;2.63;100.00;102419.63;5099099;28;20187;-72
2022/01/15 11:52:17;;;;;;;24.83;13.80;;;;;;;2.60;100.00;102415.28;5117238;28;20179;-72
2022/01/15 11:54:59;;;;;;;26.20;11.33;;;;;;;2.63;100.00;102411.88;5073150;28;20594;-72